Time;durP1;ratioP1;P1;durP2;ratioP2;P2;SDS_P1;SDS_P2;PMS_P1;PMS_P2;Temp;Humidity;BMP_temperature;BMP_pressure;BME280_temperature;BME280_humidity;BME280_pressure;Samples;Min_cycle;Max_cycle;Signal;HPM_P1;HPM_P2
2023/10/19 00:01:11;;;;;;;17.23;11.30;;;9.70;97.50;;;;;;5072291;28;20101;-68
2023/10/19 00:03:37;;;;;;;15.35;11.50;;;9.80;97.50;;;;;;5071907;28;20526;-69
2023/10/19 00:06:05;;;;;;;15.30;11.07;;;9.80;97.50;;;;;;5072404;28;20143;-69
2023/10/19 00:08:41;;;;;;;15.82;11.02;;;9.80;97.60;;;;;;5071729;28;20470;-68
2023/10/19 00:11:08;;;;;;;14.30;10.70;;;9.80;97.50;;;;;;5072053;28;20392;-69
2023/10/19 00:13:38;;;;;;;16.35;10.35;;;9.80;97.50;;;;;;5071984;28;20329;-68
2023/10/19 00:16:16;;;;;;;20.10;11.05;;;9.80;97.60;;;;;;5076074;28;20554;-68
2023/10/19 00:18:43;;;;;;;19.20;11.40;;;9.80;97.50;;;;;;5075525;28;20033;-68
2023/10/19 00:21:24;;;;;;;15.45;10.98;;;9.80;97.40;;;;;;5075588;28;20032;-68
2023/10/19 00:23:55;;;;;;;;;;;9.80;97.50;;;;;;5076131;28;20024;-68
2023/10/19 00:26:22;;;;;;;18.50;12.02;;;9.80;97.80;;;;;;5075227;28;19927;-68
2023/10/19 00:28:57;;;;;;;16.83;10.80;;;9.80;97.90;;;;;;5075600;28;20023;-68
2023/10/19 00:31:27;;;;;;;15.57;11.63;;;9.80;98.20;;;;;;5075175;28;20024;-68
2023/10/19 00:33:54;;;;;;;15.13;11.40;;;9.80;98.20;;;;;;5075474;28;20111;-69
2023/10/19 00:36:21;;;;;;;14.35;11.38;;;9.80;98.30;;;;;;5077405;28;20411;-70
2023/10/19 00:41:30;;;;;;;18.02;12.38;;;9.70;98.60;;;;;;5075273;28;20135;-69
2023/10/19 00:44:02;;;;;;;17.73;12.00;;;9.70;98.70;;;;;;5075390;28;20385;-68
2023/10/19 00:46:43;;;;;;;16.27;11.95;;;9.70;99.00;;;;;;5074976;28;20137;-69
2023/10/19 00:49:14;;;;;;;20.13;12.77;;;9.70;99.20;;;;;;5093077;28;20084;-69
2023/10/19 00:54:53;;;;;;;14.90;12.00;;;9.70;99.20;;;;;;5095474;28;19904;-69
2023/10/19 00:57:33;;;;;;;17.23;12.07;;;9.80;99.30;;;;;;5095280;28;20374;-69
2023/10/19 01:00:11;;;;;;;18.52;12.05;;;9.80;99.20;;;;;;5094884;28;20136;-69
2023/10/19 01:02:45;;;;;;;18.48;12.23;;;9.80;99.20;;;;;;5094943;28;20409;-69
2023/10/19 01:05:13;;;;;;;14.35;11.82;;;9.80;99.30;;;;;;5095282;28;20020;-68
2023/10/19 01:07:40;;;;;;;18.00;12.45;;;9.80;99.30;;;;;;5094347;28;20485;-68
2023/10/19 01:10:19;;;;;;;17.98;11.60;;;9.80;99.30;;;;;;5095013;28;20035;-68
2023/10/19 01:12:45;;;;;;;13.75;11.32;;;9.80;99.20;;;;;;5094669;28;20060;-69
2023/10/19 01:15:23;;;;;;;15.65;11.25;;;9.80;99.20;;;;;;5093643;28;20221;-68
2023/10/19 01:17:57;;;;;;;15.02;12.38;;;9.90;99.20;;;;;;5094929;28;20035;-69
2023/10/19 01:31:07;;;;;;;20.08;12.57;;;9.90;99.50;;;;;;5094759;28;20550;-68
2023/10/19 01:33:36;;;;;;;16.83;12.48;;;9.90;99.60;;;;;;5082175;28;20082;-68
2023/10/19 01:36:11;;;;;;;18.85;12.73;;;9.80;99.50;;;;;;5074622;28;20384;-68
2023/10/19 01:38:37;;;;;;;16.73;12.68;;;9.90;99.80;;;;;;5073621;28;20480;-69
2023/10/19 01:41:07;;;;;;;17.00;12.20;;;9.90;99.90;;;;;;5074172;28;20119;-68
2023/10/19 01:43:33;;;;;;;17.67;12.43;;;9.90;99.80;;;;;;5073848;28;20031;-68
2023/10/19 01:46:05;;;;;;;16.83;12.32;;;9.90;99.90;;;;;;5073877;28;20445;-68
2023/10/19 01:48:34;;;;;;;18.45;12.20;;;9.90;99.90;;;;;;5073864;28;20385;-68
2023/10/19 01:51:20;;;;;;;18.73;12.48;;;9.90;99.90;;;;;;5074131;28;20040;-68
2023/10/19 01:53:47;;;;;;;18.58;13.05;;;9.90;99.90;;;;;;5073682;28;20021;-69
2023/10/19 01:56:16;;;;;;;16.73;12.23;;;9.90;99.90;;;;;;5073602;28;20036;-69
2023/10/19 01:58:46;;;;;;;17.35;12.55;;;10.00;99.90;;;;;;5073223;28;20048;-68
2023/10/19 02:03:42;;;;;;;16.27;12.90;;;10.00;99.90;;;;;;5073422;28;20061;-69
2023/10/19 02:06:17;;;;;;;17.45;13.45;;;10.00;99.90;;;;;;5073806;28;20488;-68
2023/10/19 02:08:51;;;;;;;18.55;12.52;;;10.00;99.90;;;;;;5073316;28;20031;-69
2023/10/19 02:11:23;;;;;;;18.45;13.75;;;10.00;99.90;;;;;;5073741;28;20462;-69
2023/10/19 02:13:59;;;;;;;17.92;12.80;;;10.00;99.90;;;;;;5071850;28;20411;-68
2023/10/19 02:16:29;;;;;;;16.80;13.13;;;10.00;99.90;;;;;;5073557;28;20024;-68
2023/10/19 02:18:55;;;;;;;19.83;13.25;;;10.00;99.90;;;;;;5072255;28;20031;-68
2023/10/19 02:21:30;;;;;;;17.80;12.82;;;10.00;99.90;;;;;;5073409;28;20040;-67
2023/10/19 02:23:59;;;;;;;21.17;13.75;;;10.00;99.90;;;;;;5073441;28;20029;-69
2023/10/19 02:26:28;;;;;;;17.83;13.43;;;10.00;99.90;;;;;;5072154;28;20031;-68
2023/10/19 02:28:55;;;;;;;19.08;13.88;;;10.00;99.90;;;;;;5073222;28;20025;-68
2023/10/19 02:31:23;;;;;;;19.48;14.00;;;10.00;99.90;;;;;;5072860;28;20528;-69
2023/10/19 02:33:58;;;;;;;21.65;14.23;;;10.00;99.90;;;;;;5072742;28;20121;-68
2023/10/19 02:36:29;;;;;;;19.30;14.23;;;10.00;99.90;;;;;;5074993;28;20029;-68
2023/10/19 02:38:59;;;;;;;23.43;15.20;;;10.10;99.90;;;;;;5073297;28;20024;-68
2023/10/19 02:41:29;;;;;;;17.92;14.05;;;10.10;99.90;;;;;;5073270;28;20285;-68
2023/10/19 02:44:02;;;;;;;20.83;14.52;;;10.00;99.90;;;;;;5073051;28;20023;-68
2023/10/19 02:46:34;;;;;;;19.83;14.35;;;10.00;99.90;;;;;;5077797;28;20111;-68
2023/10/19 02:49:13;;;;;;;21.05;14.93;;;10.00;99.90;;;;;;5093262;28;20032;-68
2023/10/19 02:51:45;;;;;;;20.30;15.07;;;10.10;99.90;;;;;;5092720;28;20465;-68
2023/10/19 02:54:18;;;;;;;20.27;15.13;;;10.10;99.90;;;;;;5093128;28;20028;-68
2023/10/19 02:56:48;;;;;;;19.65;14.65;;;10.10;99.90;;;;;;5091441;28;20031;-67
2023/10/19 02:59:15;;;;;;;17.33;14.18;;;10.10;99.90;;;;;;5092898;28;20040;-69
2023/10/19 03:01:44;;;;;;;17.27;14.32;;;10.10;99.90;;;;;;5092543;28;20024;-69
2023/10/19 03:04:12;;;;;;;18.45;14.38;;;10.10;99.90;;;;;;5092617;28;20493;-69
2023/10/19 03:06:40;;;;;;;21.10;14.73;;;10.10;99.90;;;;;;5092562;28;20032;-69
2023/10/19 03:09:13;;;;;;;19.02;15.63;;;10.00;99.90;;;;;;5092915;28;20372;-68
2023/10/19 03:11:43;;;;;;;21.27;15.35;;;10.00;99.90;;;;;;5092286;28;20099;-69
2023/10/19 03:14:11;;;;;;;21.58;15.18;;;10.00;99.90;;;;;;5092849;28;20059;-68
2023/10/19 03:16:37;;;;;;;21.92;15.57;;;10.00;99.90;;;;;;5092427;28;20107;-67
2023/10/19 03:19:04;;;;;;;18.02;14.88;;;10.00;99.90;;;;;;5092683;28;20044;-68
2023/10/19 03:21:41;;;;;;;19.90;15.25;;;10.00;99.90;;;;;;5092692;28;20024;-68
2023/10/19 03:24:12;;;;;;;21.20;15.45;;;9.90;99.90;;;;;;5092790;28;20028;-68
2023/10/19 03:26:40;;;;;;;19.33;16.00;;;10.00;99.90;;;;;;5092412;28;20102;-68
2023/10/19 03:29:12;;;;;;;20.55;16.05;;;10.00;99.90;;;;;;5092723;28;20152;-68
2023/10/19 03:31:47;;;;;;;22.80;15.95;;;10.00;99.90;;;;;;5092371;28;20050;-69
2023/10/19 03:34:16;;;;;;;21.42;16.00;;;9.90;99.90;;;;;;5092772;28;20410;-70
2023/10/19 03:36:42;;;;;;;20.10;16.35;;;9.90;99.90;;;;;;5077029;28;20058;-69
2023/10/19 03:39:17;;;;;;;21.35;16.10;;;9.90;99.90;;;;;;5072412;28;20359;-69
2023/10/19 03:41:44;;;;;;;22.65;16.90;;;9.90;99.90;;;;;;5071942;28;20120;-69
2023/10/19 03:49:37;;;;;;;23.23;15.55;;;9.90;99.90;;;;;;5074404;28;20036;-69
2023/10/19 03:54:29;;;;;;;20.70;17.13;;;9.90;99.90;;;;;;5076324;28;20044;-69
2023/10/19 03:56:57;;;;;;;24.70;16.80;;;9.80;99.90;;;;;;5075861;28;20026;-69
2023/10/19 03:59:31;;;;;;;20.90;16.33;;;9.90;99.90;;;;;;5076215;28;20067;-69
2023/10/19 04:01:59;;;;;;;25.60;17.65;;;9.80;99.90;;;;;;5075675;28;20036;-69
2023/10/19 04:04:25;;;;;;;19.98;16.63;;;9.90;99.90;;;;;;5076247;28;20032;-69
2023/10/19 04:06:57;;;;;;;23.40;17.08;;;9.80;99.90;;;;;;5075577;28;20035;-69
2023/10/19 04:09:23;;;;;;;28.60;17.95;;;9.80;99.90;;;;;;5075659;28;20036;-69
2023/10/19 04:11:49;;;;;;;20.98;17.40;;;9.80;99.90;;;;;;5075482;28;20029;-69
2023/10/19 04:14:15;;;;;;;21.73;17.77;;;9.80;99.90;;;;;;5075696;28;20051;-69
2023/10/19 04:16:45;;;;;;;24.75;18.25;;;9.80;99.90;;;;;;5075269;28;20103;-70
2023/10/19 04:19:16;;;;;;;22.83;18.08;;;9.80;99.90;;;;;;5075520;28;20024;-69
2023/10/19 04:21:46;;;;;;;23.42;17.42;;;9.80;99.90;;;;;;5075041;28;20025;-69
2023/10/19 04:24:13;;;;;;;28.70;18.77;;;9.80;99.90;;;;;;5075687;28;20032;-69
2023/10/19 04:26:39;;;;;;;26.23;18.10;;;9.90;99.90;;;;;;5073997;28;20032;-69
2023/10/19 04:29:17;;;;;;;23.73;17.83;;;9.90;99.90;;;;;;5075736;28;20107;-69
2023/10/19 04:32:24;;;;;;;21.23;17.48;;;9.90;99.90;;;;;;5075279;28;20021;-70
2023/10/19 04:34:36;;;;;;;24.08;17.58;;;9.80;99.90;;;;;;5073432;28;20033;-69
2023/10/19 04:37:03;;;;;;;22.40;16.98;;;9.90;99.90;;;;;;5075372;28;20071;-69
2023/10/19 04:39:30;;;;;;;21.83;16.83;;;9.90;99.90;;;;;;5075257;28;20420;-69
2023/10/19 04:41:56;;;;;;;22.58;17.40;;;9.90;99.90;;;;;;5074592;28;20406;-69
2023/10/19 04:44:22;;;;;;;20.92;16.70;;;9.90;99.90;;;;;;5075212;28;20055;-69
2023/10/19 04:46:48;;;;;;;24.55;16.95;;;9.90;99.90;;;;;;5074801;28;20020;-69
2023/10/19 04:49:16;;;;;;;23.02;17.30;;;9.90;99.90;;;;;;5089675;28;20544;-68
2023/10/19 04:51:43;;;;;;;23.50;17.52;;;9.90;99.90;;;;;;5094919;28;20035;-69
2023/10/19 04:54:09;;;;;;;24.08;17.75;;;9.90;99.90;;;;;;5095422;28;20077;-69
2023/10/19 04:56:35;;;;;;;26.83;18.20;;;9.90;99.90;;;;;;5095297;28;20020;-69
2023/10/19 04:59:02;;;;;;;20.95;17.23;;;9.90;99.90;;;;;;5094855;28;20591;-69
2023/10/19 05:01:28;;;;;;;23.92;18.15;;;9.90;99.90;;;;;;5093578;28;20476;-69
2023/10/19 05:03:54;;;;;;;22.98;17.45;;;9.90;99.90;;;;;;5094857;28;20028;-69
2023/10/19 05:06:19;;;;;;;26.85;17.55;;;9.90;99.90;;;;;;5095171;28;20024;-68
2023/10/19 05:08:46;;;;;;;25.25;18.45;;;9.90;99.90;;;;;;5094526;28;20434;-69
2023/10/19 05:11:12;;;;;;;20.75;17.02;;;9.90;99.90;;;;;;5095169;28;20388;-69
2023/10/19 05:13:39;;;;;;;25.33;17.75;;;9.90;99.90;;;;;;5093904;28;20020;-69
2023/10/19 05:16:05;;;;;;;22.30;17.58;;;9.90;99.90;;;;;;5095290;28;20020;-69
2023/10/19 05:18:31;;;;;;;23.08;17.27;;;10.00;99.90;;;;;;5093989;28;20126;-69
2023/10/19 05:20:56;;;;;;;22.48;16.65;;;10.00;99.90;;;;;;5094584;28;20028;-70
2023/10/19 05:23:25;;;;;;;24.42;17.48;;;10.00;99.90;;;;;;5095055;28;20028;-68
2023/10/19 05:25:53;;;;;;;20.58;16.30;;;10.10;99.90;;;;;;5085670;28;20689;-69
2023/10/19 05:28:21;;;;;;;22.20;16.92;;;10.10;99.90;;;;;;5074482;28;20039;-68
2023/10/19 05:30:48;;;;;;;25.67;16.95;;;10.10;99.90;;;;;;5084294;28;20063;-69
2023/10/19 05:33:14;;;;;;;22.52;17.08;;;10.10;99.90;;;;;;5094750;28;20036;-69
2023/10/19 05:35:40;;;;;;;26.42;17.63;;;10.10;99.90;;;;;;5094558;28;20376;-69
2023/10/19 05:38:09;;;;;;;26.40;17.55;;;10.20;99.90;;;;;;5091566;28;20028;-69
2023/10/19 05:40:35;;;;;;;26.13;17.77;;;10.20;99.90;;;;;;5087282;28;20081;-68
2023/10/19 05:43:02;;;;;;;24.10;18.23;;;10.30;99.90;;;;;;5073981;28;20035;-68
2023/10/19 05:45:28;;;;;;;22.60;17.17;;;10.30;99.90;;;;;;5074214;28;20085;-69
2023/10/19 05:47:57;;;;;;;24.63;17.27;;;10.30;99.90;;;;;;5073847;28;20040;-69
2023/10/19 05:50:23;;;;;;;22.58;16.90;;;10.30;99.90;;;;;;5074579;28;20170;-68
2023/10/19 05:52:49;;;;;;;21.95;16.70;;;10.40;99.90;;;;;;5073821;28;20031;-69
2023/10/19 05:55:16;;;;;;;23.25;17.77;;;10.40;99.90;;;;;;5086345;28;20377;-69
2023/10/19 05:57:41;;;;;;;24.70;17.83;;;10.40;99.90;;;;;;5094191;28;20028;-69
2023/10/19 06:00:12;;;;;;;24.35;16.27;;;10.40;99.90;;;;;;5094132;28;20134;-69
2023/10/19 06:02:43;;;;;;;22.50;17.45;;;10.40;99.90;;;;;;5094268;28;20106;-69
2023/10/19 06:05:09;;;;;;;24.75;17.65;;;10.50;99.90;;;;;;5094112;28;20479;-69
2023/10/19 06:07:35;;;;;;;23.35;17.88;;;10.50;99.90;;;;;;5094000;28;20091;-69
2023/10/19 06:10:04;;;;;;;21.70;17.55;;;10.50;99.90;;;;;;5093641;28;20038;-70
2023/10/19 06:12:31;;;;;;;21.88;17.52;;;10.50;99.90;;;;;;5092504;28;20028;-69
2023/10/19 06:14:57;;;;;;;22.67;17.13;;;10.50;99.90;;;;;;5093497;28;20032;-70
2023/10/19 06:17:23;;;;;;;22.80;17.60;;;10.60;99.90;;;;;;5093940;28;20077;-68
2023/10/19 06:19:49;;;;;;;24.88;17.92;;;10.60;99.90;;;;;;5093202;28;20032;-71
2023/10/19 06:22:16;;;;;;;23.27;17.92;;;10.70;99.90;;;;;;5093439;28;20025;-69
2023/10/19 06:24:43;;;;;;;25.25;17.75;;;10.70;99.90;;;;;;5093323;28;20384;-69
2023/10/19 06:27:09;;;;;;;22.08;17.42;;;10.70;99.90;;;;;;5093268;28;20035;-69
2023/10/19 06:29:35;;;;;;;22.25;17.55;;;10.70;99.90;;;;;;5093540;28;20085;-69
2023/10/19 06:32:01;;;;;;;22.48;17.80;;;10.80;99.90;;;;;;5082966;28;20024;-70
2023/10/19 06:34:27;;;;;;;23.58;18.58;;;10.90;99.90;;;;;;5072750;28;20492;-69
2023/10/19 06:36:54;;;;;;;23.52;16.90;;;10.90;99.90;;;;;;5072969;28;20023;-69
2023/10/19 06:39:20;;;;;;;23.77;17.90;;;11.00;99.90;;;;;;5072937;28;20016;-68
2023/10/19 06:41:47;;;;;;;22.58;17.73;;;11.10;99.90;;;;;;5073201;28;20040;-69
2023/10/19 06:44:13;;;;;;;24.17;17.25;;;11.20;99.90;;;;;;5084860;28;20450;-69
2023/10/19 06:46:39;;;;;;;25.25;17.83;;;11.20;99.90;;;;;;5092087;28;20461;-69
2023/10/19 06:49:05;;;;;;;21.98;17.60;;;11.30;99.90;;;;;;5092950;28;20039;-69
2023/10/19 06:51:33;;;;;;;23.05;17.73;;;11.30;99.90;;;;;;5093867;28;20032;-69
2023/10/19 06:53:58;;;;;;;22.90;17.30;;;11.30;99.90;;;;;;5092932;28;20030;-69
2023/10/19 06:56:24;;;;;;;20.92;17.38;;;11.40;99.90;;;;;;5093260;28;20020;-69
2023/10/19 06:58:50;;;;;;;21.48;17.35;;;11.40;99.90;;;;;;5092818;28;20415;-70
2023/10/19 07:01:17;;;;;;;19.10;16.55;;;11.40;99.90;;;;;;5093170;28;20036;-70
2023/10/19 07:03:43;;;;;;;23.75;17.98;;;11.40;99.90;;;;;;5092808;28;20028;-69
2023/10/19 07:06:13;;;;;;;23.27;17.75;;;11.40;99.90;;;;;;5092764;28;20094;-69
2023/10/19 07:08:40;;;;;;;24.75;17.70;;;11.40;99.90;;;;;;5093271;28;20154;-68
2023/10/19 07:11:07;;;;;;;21.67;18.15;;;11.40;99.90;;;;;;5092706;28;20123;-68
2023/10/19 07:13:33;;;;;;;24.23;18.73;;;11.40;99.90;;;;;;5092904;28;20028;-68
2023/10/19 07:15:59;;;;;;;26.75;19.65;;;11.40;99.90;;;;;;5093059;28;20028;-69
2023/10/19 07:18:25;;;;;;;25.67;19.58;;;11.40;99.90;;;;;;5093864;28;20028;-69
2023/10/19 07:21:00;;;;;;;27.38;20.00;;;11.40;99.90;;;;;;5093525;28;20376;-69
2023/10/19 07:23:26;;;;;;;25.17;20.33;;;11.40;99.90;;;;;;5093536;28;20020;-70
2023/10/19 07:25:59;;;;;;;22.63;19.20;;;11.40;99.90;;;;;;5093851;28;20059;-69
2023/10/19 07:28:26;;;;;;;26.92;20.88;;;11.40;99.90;;;;;;5094365;28;20057;-69
2023/10/19 07:30:52;;;;;;;27.52;21.90;;;11.40;99.90;;;;;;5086229;28;20037;-68
2023/10/19 07:33:19;;;;;;;24.33;20.55;;;11.40;99.90;;;;;;5074007;28;20031;-68
2023/10/19 07:35:46;;;;;;;28.85;20.95;;;11.40;99.90;;;;;;5074254;28;20020;-69
2023/10/19 07:38:16;;;;;;;24.38;20.38;;;11.40;99.90;;;;;;5073943;28;20028;-69
2023/10/19 07:40:43;;;;;;;25.38;20.90;;;11.40;99.90;;;;;;5073220;28;20032;-69
2023/10/19 07:43:09;;;;;;;26.25;20.75;;;11.40;99.90;;;;;;5072001;28;20033;-68
2023/10/19 07:45:36;;;;;;;26.75;21.13;;;11.40;99.90;;;;;;5072333;28;20032;-68
2023/10/19 07:48:11;;;;;;;25.60;20.75;;;11.40;99.90;;;;;;5071991;28;20071;-69
2023/10/19 07:50:40;;;;;;;25.48;20.23;;;11.40;99.90;;;;;;5072096;28;20043;-68
2023/10/19 07:53:06;;;;;;;24.33;20.23;;;11.50;99.90;;;;;;5072016;28;20463;-69
2023/10/19 07:55:32;;;;;;;25.50;21.58;;;11.50;99.90;;;;;;5072028;28;20112;-70
2023/10/19 07:58:03;;;;;;;27.20;21.75;;;11.50;99.90;;;;;;5070812;28;20419;-69
2023/10/19 08:00:33;;;;;;;24.40;20.13;;;11.50;99.90;;;;;;5072371;28;20045;-69
2023/10/19 08:03:00;;;;;;;27.23;21.45;;;11.50;99.90;;;;;;5071985;28;20056;-69
2023/10/19 08:05:26;;;;;;;29.60;20.40;;;11.50;99.90;;;;;;5072530;28;20482;-68
2023/10/19 08:07:51;;;;;;;27.23;21.52;;;11.50;99.90;;;;;;5072171;28;20037;-68
2023/10/19 08:10:19;;;;;;;24.25;19.65;;;11.50;99.90;;;;;;5072046;28;20029;-68
2023/10/19 08:12:49;;;;;;;24.45;20.48;;;11.50;99.90;;;;;;5072190;28;20043;-68
2023/10/19 08:15:15;;;;;;;22.20;18.90;;;11.60;99.90;;;;;;5071774;28;20070;-68
2023/10/19 08:17:43;;;;;;;30.05;22.15;;;11.60;99.90;;;;;;5072067;28;20032;-70
2023/10/19 08:20:15;;;;;;;26.13;21.45;;;11.60;99.90;;;;;;5071679;28;20040;-68
2023/10/19 08:22:42;;;;;;;28.17;20.55;;;11.60;99.90;;;;;;5072175;28;20021;-69
2023/10/19 08:25:11;;;;;;;24.92;19.75;;;11.60;99.90;;;;;;5070327;28;20420;-69
2023/10/19 08:27:49;;;;;;;25.63;20.45;;;11.60;99.90;;;;;;5071993;28;20036;-68
2023/10/19 08:30:17;;;;;;;26.90;20.80;;;11.60;99.90;;;;;;5070268;28;20446;-67
2023/10/19 08:32:47;;;;;;;24.85;21.15;;;11.70;99.90;;;;;;5071951;28;20021;-69
2023/10/19 08:35:20;;;;;;;30.35;20.52;;;11.70;99.90;;;;;;5079390;28;20024;-69
2023/10/19 08:37:46;;;;;;;23.42;18.90;;;11.70;99.90;;;;;;5095730;28;20028;-69
2023/10/19 08:40:16;;;;;;;27.38;20.83;;;11.80;99.90;;;;;;5094956;28;20077;-69
2023/10/19 08:42:43;;;;;;;28.80;21.08;;;11.80;99.90;;;;;;5095817;28;20051;-68
2023/10/19 08:45:12;;;;;;;27.25;20.90;;;11.80;99.90;;;;;;5095204;28;20486;-70
2023/10/19 08:47:43;;;;;;;26.67;20.35;;;11.80;99.90;;;;;;5095431;28;20425;-69
2023/10/19 08:50:09;;;;;;;23.27;19.60;;;11.90;99.90;;;;;;5095046;28;20034;-69
2023/10/19 08:52:36;;;;;;;25.88;19.35;;;11.90;99.90;;;;;;5095763;28;20024;-68
2023/10/19 08:55:01;;;;;;;21.13;17.92;;;11.90;99.90;;;;;;5094780;28;20028;-70
2023/10/19 08:57:28;;;;;;;21.85;18.52;;;11.90;99.90;;;;;;5095668;28;20111;-70
2023/10/19 08:59:58;;;;;;;23.38;19.48;;;12.00;99.90;;;;;;5095473;28;20047;-68
2023/10/19 09:02:24;;;;;;;25.08;19.70;;;12.00;99.90;;;;;;5095333;28;20036;-69
2023/10/19 09:04:50;;;;;;;23.55;19.70;;;12.00;99.90;;;;;;5095151;28;20042;-69
2023/10/19 09:07:18;;;;;;;26.60;20.88;;;12.10;99.90;;;;;;5094597;28;20028;-69
2023/10/19 09:09:47;;;;;;;26.05;20.20;;;12.10;99.90;;;;;;5095341;28;20097;-69
2023/10/19 09:12:13;;;;;;;32.17;21.27;;;12.10;99.90;;;;;;5094740;28;20028;-70
2023/10/19 09:14:43;;;;;;;24.65;18.92;;;12.10;99.90;;;;;;5095213;28;20429;-68
2023/10/19 09:17:10;;;;;;;23.23;19.27;;;12.20;99.90;;;;;;5093526;28;20024;-70
2023/10/19 09:19:48;;;;;;;25.02;18.75;;;12.20;99.90;;;;;;5094822;28;20500;-68
2023/10/19 09:22:22;;;;;;;22.92;18.42;;;12.30;99.90;;;;;;5094614;28;20461;-68
2023/10/19 09:24:53;;;;;;;24.38;18.35;;;12.30;99.90;;;;;;5095223;28;20032;-69
2023/10/19 09:27:19;;;;;;;20.13;16.95;;;12.40;99.90;;;;;;5094556;28;20040;-69
2023/10/19 09:29:46;;;;;;;24.88;19.35;;;12.40;99.90;;;;;;5094841;28;20066;-70
2023/10/19 09:32:13;;;;;;;21.00;16.85;;;12.40;99.90;;;;;;5081388;28;20024;-69
2023/10/19 09:34:43;;;;;;;21.38;18.25;;;12.50;99.90;;;;;;5074712;28;20044;-69
2023/10/19 09:37:09;;;;;;;20.23;16.85;;;12.50;99.90;;;;;;5073936;28;20029;-69
2023/10/19 09:39:35;;;;;;;23.10;17.90;;;12.50;99.90;;;;;;5073057;28;20075;-69
2023/10/19 09:42:11;;;;;;;23.48;18.60;;;12.60;99.90;;;;;;5073785;28;20036;-70
2023/10/19 09:44:58;;;;;;;23.67;17.77;;;12.60;99.90;;;;;;5074549;28;20147;-69
2023/10/19 09:47:30;;;;;;;22.42;18.45;;;12.60;99.90;;;;;;5073636;28;20021;-68
2023/10/19 09:49:57;;;;;;;24.77;18.30;;;12.60;99.90;;;;;;5074433;28;20039;-68
2023/10/19 09:52:24;;;;;;;23.10;17.35;;;12.70;99.90;;;;;;5073749;28;20021;-69
2023/10/19 09:55:00;;;;;;;22.42;18.35;;;12.70;99.90;;;;;;5074076;28;20040;-69
2023/10/19 09:57:37;;;;;;;22.38;18.98;;;12.70;99.90;;;;;;5074220;28;20354;-68
2023/10/19 10:00:11;;;;;;;26.52;19.10;;;12.70;99.90;;;;;;5055017;28;20499;-69
2023/10/19 10:02:47;;;;;;;22.13;18.63;;;12.80;99.90;;;;;;5073847;28;20032;-68
2023/10/19 10:05:47;;;;;;;25.73;18.13;;;12.80;99.90;;;;;;5073254;28;20465;-69
2023/10/19 10:08:18;;;;;;;23.98;18.52;;;12.90;99.90;;;;;;5029907;28;20040;-68
2023/10/19 10:10:46;;;;;;;21.65;17.20;;;13.00;99.90;;;;;;5073610;28;20496;-69
2023/10/19 10:13:24;;;;;;;22.48;18.52;;;13.00;99.90;;;;;;5073023;28;20423;-69
2023/10/19 10:15:55;;;;;;;21.48;17.80;;;13.10;99.90;;;;;;5073632;28;20028;-69
2023/10/19 10:18:24;;;;;;;;;;;13.10;99.90;;;;;;5073804;28;20032;-69
2023/10/19 10:21:10;;;;;;;22.38;16.55;;;13.20;99.90;;;;;;5073507;28;19951;-69
2023/10/19 10:24:00;;;;;;;20.58;17.38;;;13.20;99.90;;;;;;5073993;28;20453;-69
2023/10/19 10:26:36;;;;;;;22.00;16.92;;;13.30;99.90;;;;;;5075289;28;20021;-69
2023/10/19 10:29:21;;;;;;;21.05;16.80;;;13.40;99.90;;;;;;5073451;28;20043;-70
2023/10/19 10:31:50;;;;;;;21.92;16.75;;;13.40;99.90;;;;;;5073076;28;20496;-69
2023/10/19 10:34:37;;;;;;;19.70;16.45;;;13.50;99.90;;;;;;5073005;28;20024;-68
2023/10/19 10:37:08;;;;;;;20.80;15.65;;;13.50;99.90;;;;;;5073252;28;20052;-68
2023/10/19 10:39:37;;;;;;;19.67;16.67;;;13.60;99.90;;;;;;5089694;28;20036;-69
2023/10/19 10:42:05;;;;;;;18.48;15.20;;;13.60;99.90;;;;;;5093340;28;20028;-69
2023/10/19 10:44:42;;;;;;;20.05;16.15;;;13.70;99.90;;;;;;5093178;28;20392;-68
2023/10/19 10:47:16;;;;;;;20.05;15.55;;;13.70;99.90;;;;;;5093074;28;20065;-69
2023/10/19 10:49:51;;;;;;;22.63;15.57;;;13.80;99.90;;;;;;5093485;28;20055;-68
2023/10/19 10:52:36;;;;;;;20.20;15.80;;;13.80;99.90;;;;;;5092852;28;20080;-69
2023/10/19 10:55:13;;;;;;;18.60;15.38;;;13.80;99.90;;;;;;5093144;28;20456;-69
2023/10/19 10:57:39;;;;;;;22.42;16.10;;;13.90;99.90;;;;;;5093159;28;20048;-69
2023/10/19 11:00:15;;;;;;;17.83;14.30;;;14.00;99.90;;;;;;5093052;28;20135;-71
2023/10/19 11:02:43;;;;;;;21.38;15.55;;;14.10;99.90;;;;;;5093327;28;20073;-69
2023/10/19 11:05:12;;;;;;;21.98;15.68;;;14.20;99.90;;;;;;5092761;28;20168;-70
2023/10/19 11:07:39;;;;;;;19.67;16.05;;;14.30;99.90;;;;;;5093451;28;20058;-68
2023/10/19 11:10:05;;;;;;;16.65;14.45;;;14.40;99.90;;;;;;5093114;28;20085;-69
2023/10/19 11:12:31;;;;;;;18.45;14.65;;;14.50;99.90;;;;;;5093158;28;20145;-69
2023/10/19 11:15:09;;;;;;;18.65;15.20;;;14.60;99.90;;;;;;5093272;28;20063;-68
2023/10/19 11:17:42;;;;;;;19.98;14.52;;;14.70;99.90;;;;;;5093106;28;20453;-68
2023/10/19 11:20:13;;;;;;;19.08;14.93;;;14.80;99.90;;;;;;5092047;28;20039;-70
2023/10/19 11:22:47;;;;;;;;;;;14.90;99.90;;;;;;5093402;28;20035;-68
2023/10/19 11:25:21;;;;;;;19.48;13.55;;;15.00;99.90;;;;;;5092447;28;19904;-68
2023/10/19 11:27:47;;;;;;;20.65;12.82;;;15.10;99.90;;;;;;5092759;28;20114;-68
2023/10/19 11:30:13;;;;;;;18.30;14.77;;;15.20;99.90;;;;;;5092013;28;20491;-70
2023/10/19 11:32:39;;;;;;;19.83;14.30;;;15.30;99.90;;;;;;5091551;28;20082;-68
2023/10/19 11:35:09;;;;;;;17.38;13.50;;;15.40;99.70;;;;;;5089275;28;20028;-69
2023/10/19 11:37:52;;;;;;;16.73;13.65;;;15.40;99.70;;;;;;5092542;28;20159;-68
2023/10/19 11:40:20;;;;;;;15.15;13.45;;;15.50;99.30;;;;;;5092184;28;20127;-69
2023/10/19 11:42:46;;;;;;;17.95;14.60;;;15.50;99.10;;;;;;5092686;28;20377;-69
2023/10/19 11:45:12;;;;;;;16.83;13.15;;;15.60;98.90;;;;;;5092316;28;20066;-68
2023/10/19 11:47:38;;;;;;;15.68;13.05;;;15.60;98.70;;;;;;5092915;28;20425;-69
2023/10/19 11:50:04;;;;;;;17.20;12.65;;;15.70;98.20;;;;;;5092872;28;20357;-68
2023/10/19 11:52:31;;;;;;;17.63;13.63;;;15.80;98.60;;;;;;5092236;28;20032;-69
2023/10/19 11:54:57;;;;;;;17.10;13.20;;;15.80;98.40;;;;;;5092604;28;20024;-68
2023/10/19 11:57:24;;;;;;;16.38;12.48;;;15.80;98.30;;;;;;5092086;28;20526;-70
2023/10/19 11:59:52;;;;;;;18.27;13.55;;;15.90;98.30;;;;;;5092389;28;20040;-70
2023/10/19 12:02:21;;;;;;;17.25;14.02;;;15.90;98.00;;;;;;5092052;28;20020;-69
2023/10/19 12:04:47;;;;;;;16.10;13.35;;;15.90;97.70;;;;;;5092315;28;20020;-69
2023/10/19 12:07:12;;;;;;;16.73;13.63;;;15.90;97.60;;;;;;5091731;28;20016;-69
2023/10/19 12:09:41;;;;;;;16.80;12.90;;;15.90;97.20;;;;;;5093127;28;20073;-69
2023/10/19 12:12:08;;;;;;;15.02;12.52;;;15.90;97.40;;;;;;5096147;28;20039;-68
2023/10/19 12:14:35;;;;;;;15.10;13.18;;;15.90;97.30;;;;;;5095722;28;20032;-69
2023/10/19 12:17:02;;;;;;;14.15;11.88;;;15.90;97.40;;;;;;5096232;28;20518;-69
2023/10/19 12:19:30;;;;;;;13.60;11.35;;;15.90;97.40;;;;;;5095602;28;20031;-69
2023/10/19 12:21:57;;;;;;;15.20;11.77;;;15.90;97.40;;;;;;5096092;28;20054;-70
2023/10/19 12:24:23;;;;;;;17.05;12.52;;;15.90;97.60;;;;;;5095365;28;20077;-69
2023/10/19 12:26:50;;;;;;;15.05;11.85;;;15.90;97.60;;;;;;5096001;28;20032;-69
2023/10/19 12:29:17;;;;;;;14.73;11.73;;;15.90;97.80;;;;;;5095396;28;20032;-69
2023/10/19 12:31:43;;;;;;;15.10;11.73;;;15.90;97.80;;;;;;5095928;28;20033;-69
2023/10/19 12:34:11;;;;;;;15.88;12.68;;;15.90;97.90;;;;;;5092474;28;20369;-69
2023/10/19 12:36:37;;;;;;;17.52;11.93;;;15.90;98.00;;;;;;5095431;28;20051;-69
2023/10/19 12:39:06;;;;;;;18.08;12.27;;;15.90;98.10;;;;;;5095772;28;20047;-70
2023/10/19 12:41:33;;;;;;;16.58;12.73;;;15.90;98.20;;;;;;5077159;28;20041;-69
2023/10/19 12:44:01;;;;;;;19.35;14.15;;;15.90;98.10;;;;;;5075455;28;20082;-68
2023/10/19 12:46:29;;;;;;;20.75;13.20;;;15.90;97.90;;;;;;5074940;28;20113;-70
2023/10/19 12:48:56;;;;;;;21.27;17.23;;;15.90;98.10;;;;;;5075345;28;20457;-69
2023/10/19 12:51:24;;;;;;;20.15;16.48;;;15.90;98.20;;;;;;5074736;28;20037;-69
2023/10/19 12:53:51;;;;;;;21.38;16.20;;;15.90;98.10;;;;;;5075187;28;20040;-68
2023/10/19 12:56:28;;;;;;;24.67;17.15;;;15.90;98.10;;;;;;5074680;28;20418;-68
2023/10/19 12:58:54;;;;;;;25.00;17.23;;;15.90;98.00;;;;;;5074963;28;20508;-69
2023/10/19 13:01:21;;;;;;;24.90;17.77;;;15.90;98.20;;;;;;5074562;28;20032;-69
2023/10/19 13:03:49;;;;;;;25.88;17.55;;;15.90;98.30;;;;;;5075157;28;20475;-69
2023/10/19 13:06:15;;;;;;;24.45;16.55;;;15.90;98.30;;;;;;5074427;28;20112;-70
2023/10/19 13:08:41;;;;;;;23.63;18.15;;;15.90;98.50;;;;;;5074959;28;20488;-69